createdAt,value
2018-05-29T00:01:34.271Z,27.10
2018-05-29T00:04:04.341Z,30.40
2018-05-29T00:06:34.073Z,21.90
2018-05-29T00:09:36.935Z,64.93
2018-05-29T00:12:06.875Z,37.30
2018-05-29T00:14:50.153Z,36.53
2018-05-29T00:17:20.975Z,26.40
2018-05-29T00:19:51.549Z,25.17
2018-05-29T00:22:20.905Z,32.13
2018-05-29T00:24:51.411Z,39.43
2018-05-29T00:27:22.867Z,30.10
2018-05-29T00:29:57.294Z,31.53
2018-05-29T00:32:35.065Z,31.77
2018-05-29T00:35:07.050Z,30.60
2018-05-29T00:37:38.455Z,27.93
2018-05-29T00:40:08.023Z,29.60
2018-05-29T00:42:42.806Z,28.83
2018-05-29T00:45:29.134Z,28.67
2018-05-29T00:48:16.092Z,38.70
2018-05-29T00:50:57.509Z,39.83
2018-05-29T00:53:59.365Z,29.10
2018-05-29T00:56:43.878Z,29.40
2018-05-29T00:59:16.330Z,33.70
2018-05-29T01:01:45.580Z,30.30
2018-05-29T01:04:29.291Z,44.13
2018-05-29T01:07:13.942Z,42.73
2018-05-29T01:09:43.941Z,34.57
2018-05-29T01:12:19.854Z,36.83
2018-05-29T01:15:07.698Z,40.47
2018-05-29T01:17:39.856Z,36.77
2018-05-29T01:20:10.087Z,37.63
2018-05-29T01:22:50.805Z,35.90
2018-05-29T01:25:34.518Z,39.60
2018-05-29T01:28:04.594Z,32.73
2018-05-29T01:30:45.664Z,34.40
2018-05-29T01:33:20.425Z,42.93
2018-05-29T01:35:57.741Z,37.33
2018-05-29T01:38:30.519Z,30.90
2018-05-29T01:41:01.048Z,32.37
2018-05-29T01:43:31.091Z,43.33
2018-05-29T01:46:00.232Z,33.50
2018-05-29T01:48:29.745Z,37.07
2018-05-29T01:51:06.851Z,39.70
2018-05-29T01:53:37.004Z,46.33
2018-05-29T01:56:06.209Z,35.77
2018-05-29T01:58:36.519Z,39.83
2018-05-29T02:01:05.701Z,37.23
2018-05-29T02:03:35.735Z,35.87
2018-05-29T02:06:05.533Z,31.77
2018-05-29T02:08:35.754Z,36.13
2018-05-29T02:11:05.544Z,37.00
2018-05-29T02:13:34.725Z,36.07
2018-05-29T02:16:05.809Z,39.57
2018-05-29T02:18:35.162Z,34.80
2018-05-29T02:21:04.857Z,40.67
2018-05-29T02:23:34.358Z,39.40
2018-05-29T02:26:05.700Z,39.60
2018-05-29T02:28:36.161Z,39.40
2018-05-29T02:31:05.885Z,43.73
2018-05-29T02:33:35.337Z,45.40
2018-05-29T02:36:06.705Z,43.47
2018-05-29T02:38:36.440Z,40.80
2018-05-29T02:41:06.360Z,37.33
2018-05-29T02:43:37.071Z,47.10
2018-05-29T02:46:07.148Z,40.73
2018-05-29T02:48:36.437Z,32.83
2018-05-29T02:51:05.950Z,34.00
2018-05-29T02:53:35.372Z,37.23
2018-05-29T02:56:06.126Z,40.53
2018-05-29T02:58:36.363Z,37.40
2018-05-29T03:01:06.535Z,39.00
2018-05-29T03:03:36.832Z,44.87
2018-05-29T03:06:07.030Z,43.40
2018-05-29T03:08:36.713Z,49.13
2018-05-29T03:11:24.886Z,45.70
2018-05-29T03:13:55.407Z,45.60
2018-05-29T03:16:26.859Z,52.63
2018-05-29T03:18:59.540Z,57.60
2018-05-29T03:21:42.644Z,39.93
2018-05-29T03:24:18.582Z,39.33
2018-05-29T03:26:50.522Z,36.03
2018-05-29T03:29:23.224Z,42.30
2018-05-29T03:31:55.413Z,38.17
2018-05-29T03:34:34.633Z,36.53
2018-05-29T03:37:14.718Z,42.70
2018-05-29T03:39:44.661Z,49.27
2018-05-29T03:42:14.112Z,37.90
2018-05-29T03:44:43.721Z,41.77
2018-05-29T03:47:15.010Z,43.33
2018-05-29T03:49:45.701Z,35.20
2018-05-29T03:52:16.135Z,35.80
2018-05-29T03:54:46.129Z,32.30
2018-05-29T03:57:15.750Z,37.07
2018-05-29T03:59:46.865Z,35.97
2018-05-29T04:02:16.146Z,37.90
2018-05-29T04:04:45.687Z,37.07
2018-05-29T04:07:20.443Z,37.27
2018-05-29T04:09:50.919Z,34.73
2018-05-29T04:12:24.782Z,38.10
2018-05-29T04:14:56.463Z,37.77
2018-05-29T04:17:26.376Z,40.23
2018-05-29T04:19:55.783Z,39.87
2018-05-29T04:22:55.537Z,50.33
2018-05-29T04:25:37.955Z,50.73
2018-05-29T04:28:11.840Z,49.50
2018-05-29T04:30:41.047Z,65.77
2018-05-29T04:33:10.791Z,49.90
2018-05-29T04:35:41.301Z,49.00
2018-05-29T04:38:11.289Z,61.33
2018-05-29T04:40:41.785Z,49.80
2018-05-29T04:43:11.774Z,61.13
2018-05-29T04:45:42.347Z,50.27
2018-05-29T04:48:11.576Z,52.80
2018-05-29T04:50:40.809Z,75.50
2018-05-29T04:53:10.018Z,54.13
2018-05-29T04:55:39.253Z,73.90
2018-05-29T04:58:08.510Z,54.97
2018-05-29T05:00:37.802Z,56.73
2018-05-29T05:03:09.333Z,60.10
2018-05-29T05:05:39.620Z,56.87
2018-05-29T05:08:09.040Z,67.67
2018-05-29T05:10:39.386Z,59.10
2018-05-29T05:13:08.990Z,62.27
2018-05-29T05:15:45.010Z,75.70
2018-05-29T05:18:22.093Z,70.17
2018-05-29T05:20:51.622Z,64.43
2018-05-29T05:23:20.967Z,67.53
2018-05-29T05:25:50.333Z,71.13
2018-05-29T05:28:20.151Z,62.00
2018-05-29T05:30:49.495Z,68.10
2018-05-29T05:33:18.769Z,61.13
2018-05-29T05:35:48.318Z,49.93
2018-05-29T05:38:17.724Z,50.93
2018-05-29T05:40:47.923Z,56.27
2018-05-29T05:43:18.375Z,50.90
2018-05-29T05:45:48.738Z,42.83
2018-05-29T05:48:18.279Z,40.93
2018-05-29T05:50:47.875Z,37.67
2018-05-29T05:53:18.205Z,38.07
2018-05-29T05:55:47.957Z,44.43
2018-05-29T05:58:17.255Z,29.33
2018-05-29T06:00:47.555Z,32.17
2018-05-29T06:03:17.566Z,28.57
2018-05-29T06:05:49.208Z,30.80
2018-05-29T06:08:24.262Z,29.60
2018-05-29T06:10:59.386Z,28.87
2018-05-29T06:13:29.671Z,29.73
2018-05-29T06:15:59.107Z,27.83
2018-05-29T06:18:29.377Z,23.63
2018-05-29T06:20:58.628Z,21.23
2018-05-29T06:23:28.533Z,18.30
2018-05-29T06:25:58.318Z,18.23
2018-05-29T06:28:27.856Z,17.90
2018-05-29T06:31:00.858Z,13.47
2018-05-29T06:34:33.540Z,24.43
2018-05-29T06:37:02.903Z,13.97
2018-05-29T06:39:32.263Z,16.83
2018-05-29T06:42:01.746Z,16.30
2018-05-29T06:44:31.902Z,17.80
2018-05-29T06:47:01.248Z,14.33
2018-05-29T06:49:37.788Z,14.37
2018-05-29T06:52:09.135Z,16.47
2018-05-29T06:54:49.144Z,14.33
2018-05-29T06:57:42.183Z,14.63
2018-05-29T07:00:27.867Z,24.23
2018-05-29T07:02:58.400Z,15.00
2018-05-29T07:05:33.440Z,15.33
2018-05-29T07:08:04.672Z,21.93
2018-05-29T07:10:34.061Z,20.60
2018-05-29T07:13:05.127Z,15.40
2018-05-29T07:15:34.589Z,13.60
2018-05-29T07:18:04.605Z,10.00
2018-05-29T07:20:36.043Z,13.47
2018-05-29T07:23:05.474Z,13.50
2018-05-29T07:25:34.858Z,20.00
2018-05-29T07:28:05.038Z,17.23
2018-05-29T07:30:41.713Z,12.07
2018-05-29T07:33:15.526Z,12.73
2018-05-29T07:35:46.735Z,13.23
2018-05-29T07:38:20.403Z,17.20
2018-05-29T07:40:51.381Z,10.80
2018-05-29T07:43:20.879Z,18.37
2018-05-29T07:45:54.333Z,10.77
2018-05-29T07:48:24.856Z,13.93
2018-05-29T07:50:55.363Z,10.60
2018-05-29T07:53:27.144Z,12.30
2018-05-29T07:55:57.245Z,40.77
2018-05-29T07:58:27.944Z,10.17
2018-05-29T08:01:00.142Z,11.63
2018-05-29T08:03:31.092Z,10.40
2018-05-29T08:06:03.390Z,17.97
2018-05-29T08:08:33.250Z,11.23
2018-05-29T08:11:05.697Z,11.33
2018-05-29T08:13:40.150Z,13.87
2018-05-29T08:16:09.456Z,17.03
2018-05-29T08:18:53.297Z,14.13
2018-05-29T08:21:32.006Z,19.63
2018-05-29T08:24:01.505Z,12.73
2018-05-29T08:26:32.755Z,13.60
2018-05-29T08:29:04.561Z,12.97
2018-05-29T08:31:35.255Z,9.73
2018-05-29T08:34:04.638Z,11.63
2018-05-29T08:36:34.148Z,13.97
2018-05-29T08:39:06.756Z,12.70
2018-05-29T08:41:36.997Z,11.73
2018-05-29T08:44:07.882Z,23.10
2018-05-29T08:46:38.311Z,12.70
2018-05-29T08:49:08.852Z,18.52
2018-05-29T08:51:39.238Z,10.87
2018-05-29T08:54:08.756Z,18.62
2018-05-29T08:56:38.350Z,11.45
2018-05-29T08:59:11.665Z,13.13
2018-05-29T09:01:42.326Z,19.75
2018-05-29T09:04:12.728Z,9.15
2018-05-29T09:06:42.400Z,18.52
2018-05-29T09:09:13.448Z,12.47
2018-05-29T09:11:44.484Z,13.90
2018-05-29T09:14:15.257Z,14.67
2018-05-29T09:16:44.638Z,12.37
2018-05-29T09:19:14.436Z,11.20
2018-05-29T09:21:45.244Z,17.93
2018-05-29T09:24:16.024Z,18.80
2018-05-29T09:26:55.944Z,11.00
2018-05-29T09:30:34.389Z,15.40
2018-05-29T09:33:05.211Z,14.23
2018-05-29T09:35:35.972Z,11.47
2018-05-29T09:38:05.769Z,14.03
2018-05-29T09:40:36.724Z,12.23
2018-05-29T09:43:23.171Z,11.70
2018-05-29T09:46:08.830Z,15.60
2018-05-29T09:48:50.431Z,19.27
2018-05-29T09:51:20.622Z,24.17
2018-05-29T09:53:54.486Z,14.33
2018-05-29T09:56:24.736Z,22.80
2018-05-29T09:58:55.715Z,14.67
2018-05-29T10:04:51.629Z,18.27
2018-05-29T10:07:29.577Z,16.33
2018-05-29T10:10:10.731Z,19.17
2018-05-29T10:12:45.183Z,19.00
2018-05-29T10:15:18.548Z,18.60
2018-05-29T10:17:50.301Z,24.10
2018-05-29T10:20:24.681Z,19.73
2018-05-29T10:22:59.344Z,15.37
2018-05-29T10:28:16.983Z,19.23
2018-05-29T10:30:47.813Z,18.10
2018-05-29T10:33:28.498Z,15.53
2018-05-29T10:36:00.929Z,15.60
2018-05-29T10:38:33.177Z,14.33
2018-05-29T10:41:05.786Z,21.60
2018-05-29T10:43:42.798Z,20.20
2018-05-29T10:46:15.461Z,13.20
2018-05-29T10:48:47.524Z,20.33
2018-05-29T10:51:29.697Z,15.70
2018-05-29T10:54:01.653Z,28.97
2018-05-29T10:56:35.109Z,15.60
2018-05-29T10:59:06.615Z,16.77
2018-05-29T11:01:41.382Z,15.77
2018-05-29T11:04:14.127Z,17.47
2018-05-29T11:06:46.504Z,21.80
2018-05-29T11:09:21.348Z,17.33
2018-05-29T11:11:56.004Z,18.80
2018-05-29T11:18:02.472Z,12.83
2018-05-29T11:20:42.109Z,14.40
2018-05-29T11:23:16.702Z,16.10
2018-05-29T11:25:57.203Z,17.77
2018-05-29T11:28:38.636Z,14.27
2018-05-29T11:31:16.058Z,12.43
2018-05-29T11:33:46.786Z,13.20
2018-05-29T11:36:23.840Z,12.70
2018-05-29T11:38:54.494Z,13.63
2018-05-29T11:41:24.897Z,17.33
2018-05-29T11:43:59.210Z,10.38
2018-05-29T11:46:28.981Z,13.00
2018-05-29T11:48:59.070Z,18.15
2018-05-29T11:51:30.545Z,11.32
2018-05-29T11:54:02.135Z,16.75
2018-05-29T11:56:32.547Z,12.13
2018-05-29T11:59:04.672Z,10.63
2018-05-29T12:01:37.833Z,9.38
2018-05-29T12:04:10.326Z,11.05
2018-05-29T12:06:39.887Z,9.77
2018-05-29T12:09:09.526Z,7.35
2018-05-29T12:11:39.941Z,9.45
2018-05-29T12:14:11.058Z,16.10
2018-05-29T12:16:41.361Z,15.82
2018-05-29T12:19:15.439Z,14.80
2018-05-29T12:21:46.056Z,7.43
2018-05-29T12:24:17.996Z,7.00
2018-05-29T12:26:49.594Z,11.30
2018-05-29T12:29:36.223Z,10.00
2018-05-29T12:32:19.056Z,17.50
2018-05-29T12:35:04.203Z,9.00
2018-05-29T12:37:59.717Z,12.37
2018-05-29T12:47:38.323Z,8.73
2018-05-29T12:50:11.663Z,7.30
2018-05-29T12:52:42.180Z,13.00
2018-05-29T12:55:18.743Z,8.13
2018-05-29T12:57:56.438Z,10.20
2018-05-29T13:00:30.941Z,13.03
2018-05-29T13:03:03.318Z,8.20
2018-05-29T13:05:38.690Z,7.77
2018-05-29T13:08:13.227Z,8.00
2018-05-29T13:10:49.750Z,19.40
2018-05-29T13:13:27.813Z,12.87
2018-05-29T13:15:58.984Z,9.07
2018-05-29T13:18:35.187Z,8.90
2018-05-29T13:24:29.764Z,13.60
2018-05-29T13:27:11.933Z,15.63
2018-05-29T13:29:51.053Z,16.03
2018-05-29T13:32:28.938Z,15.70
2018-05-29T13:35:13.612Z,18.60
2018-05-29T13:37:50.597Z,14.17
2018-05-29T13:40:26.433Z,21.03
2018-05-29T13:42:59.930Z,18.00
2018-05-29T13:45:32.477Z,25.40
2018-05-29T13:48:06.581Z,21.23
2018-05-29T13:50:43.160Z,62.93
2018-05-29T13:53:33.298Z,132.43
2018-05-29T13:56:52.220Z,68.07
2018-05-29T13:59:26.768Z,23.43
2018-05-29T14:02:04.972Z,42.00
2018-05-29T14:04:38.162Z,47.83
2018-05-29T14:07:30.238Z,19.63
2018-05-29T14:13:03.377Z,18.07
2018-05-29T14:15:46.166Z,17.37
2018-05-29T14:18:30.282Z,16.83
2018-05-29T14:31:29.723Z,35.77
2018-05-29T14:34:05.567Z,33.00
2018-05-29T14:39:25.479Z,26.23
2018-05-29T14:42:08.231Z,29.93
2018-05-29T14:48:08.910Z,35.30
2018-05-29T14:51:49.776Z,35.53
2018-05-29T14:57:44.727Z,20.53
2018-05-29T15:00:16.943Z,20.60
2018-05-29T15:03:07.831Z,20.20
2018-05-29T15:09:07.987Z,18.57
2018-05-29T15:11:50.285Z,21.27
2018-05-29T15:14:28.640Z,30.10
2018-05-29T15:17:03.291Z,22.10
2018-05-29T15:19:39.384Z,34.60
2018-05-29T15:22:29.938Z,30.63
2018-05-29T15:25:31.110Z,24.60
2018-05-29T15:31:32.099Z,22.17
2018-05-29T15:34:11.186Z,24.80
2018-05-29T15:36:42.475Z,23.43
2018-05-29T15:39:48.221Z,26.60
2018-05-29T15:43:33.907Z,29.97
2018-05-29T15:52:46.438Z,31.80
2018-05-29T15:55:21.858Z,31.20
2018-05-29T15:57:58.712Z,36.53
2018-05-29T16:00:46.429Z,24.90
2018-05-29T16:03:27.410Z,31.77
2018-05-29T16:20:10.357Z,42.83
2018-05-29T16:22:59.863Z,40.53
2018-05-29T16:31:23.684Z,29.07
2018-05-29T16:36:52.757Z,29.30
2018-05-29T16:39:24.062Z,23.30
2018-05-29T16:41:58.480Z,24.43
2018-05-29T16:44:53.097Z,29.00
2018-05-29T16:47:26.337Z,48.57
2018-05-29T16:50:00.623Z,33.20
2018-05-29T16:52:39.301Z,36.90
2018-05-29T16:55:12.452Z,34.03
2018-05-29T16:57:43.379Z,33.63
2018-05-29T17:00:25.277Z,30.97
2018-05-29T17:03:22.542Z,36.67
2018-05-29T17:06:06.373Z,52.17
2018-05-29T17:11:27.037Z,47.17
2018-05-29T17:14:21.386Z,53.93
2018-05-29T17:19:42.975Z,44.40
2018-05-29T17:22:38.978Z,37.83
2018-05-29T17:28:20.538Z,39.10
2018-05-29T17:31:08.806Z,43.93
2018-05-29T17:52:58.932Z,51.20
2018-05-29T17:55:43.106Z,59.23
2018-05-29T18:04:29.386Z,80.40
2018-05-29T18:11:09.325Z,55.20
2018-05-29T18:14:02.296Z,49.10
2018-05-29T18:23:02.378Z,42.00
2018-05-29T18:25:36.371Z,45.63
2018-05-29T18:28:06.587Z,48.13
2018-05-29T18:30:37.450Z,66.93
2018-05-29T18:33:08.693Z,44.23
2018-05-29T18:35:38.975Z,71.33
2018-05-29T18:38:24.088Z,40.70
2018-05-29T18:41:29.966Z,33.70
2018-05-29T18:44:28.683Z,47.47
2018-05-29T18:47:13.459Z,77.30
2018-05-29T18:49:44.321Z,80.63
2018-05-29T18:52:14.646Z,116.00
2018-05-29T18:55:17.641Z,54.03
2018-05-29T19:01:19.018Z,46.00
2018-05-29T19:03:50.469Z,57.70
2018-05-29T19:09:23.195Z,48.57
2018-05-29T19:11:58.814Z,115.60
2018-05-29T19:14:31.821Z,98.37
2018-05-29T19:17:07.184Z,66.57
2018-05-29T19:19:41.342Z,35.73
2018-05-29T19:22:15.082Z,41.70
2018-05-29T19:29:55.406Z,47.53
2018-05-29T19:32:53.330Z,38.70
2018-05-29T19:35:25.742Z,42.80
2018-05-29T19:37:55.543Z,21.03
2018-05-29T19:43:42.648Z,88.57
2018-05-29T19:46:13.844Z,30.00
2018-05-29T19:48:43.816Z,37.50
2018-05-29T19:51:17.067Z,32.17
2018-05-29T19:53:49.047Z,31.80
2018-05-29T19:56:22.784Z,33.27
2018-05-29T19:58:56.478Z,30.60
2018-05-29T20:01:28.292Z,30.53
2018-05-29T20:03:59.040Z,37.37
2018-05-29T20:06:29.956Z,128.23
2018-05-29T20:09:04.475Z,57.33
2018-05-29T20:11:36.359Z,24.67
2018-05-29T20:14:17.806Z,30.73
2018-05-29T20:17:21.149Z,42.43
2018-05-29T20:19:55.479Z,38.57
2018-05-29T20:22:41.619Z,88.97
2018-05-29T20:25:15.782Z,94.60
2018-05-29T20:28:01.282Z,75.27
2018-05-29T20:33:31.595Z,89.00
2018-05-29T20:36:01.816Z,63.47
2018-05-29T20:38:34.030Z,31.30
2018-05-29T20:41:07.360Z,35.70
2018-05-29T20:43:38.333Z,27.50
2018-05-29T20:46:15.063Z,119.03
2018-05-29T20:48:46.694Z,59.60
2018-05-29T20:51:16.566Z,46.73
2018-05-29T20:53:46.667Z,39.17
2018-05-29T21:02:07.374Z,55.60
2018-05-29T21:04:39.963Z,40.77
2018-05-29T21:07:55.182Z,24.43
2018-05-29T21:13:55.637Z,47.60
2018-05-29T21:19:31.769Z,39.10
2018-05-29T21:22:01.502Z,28.20
2018-05-29T21:24:50.323Z,49.70
2018-05-29T21:27:45.411Z,48.27
2018-05-29T21:30:18.708Z,35.47
2018-05-29T21:32:54.429Z,70.17
2018-05-29T21:35:30.966Z,105.07
2018-05-29T21:38:02.391Z,24.37
2018-05-29T21:40:33.773Z,32.03
2018-05-29T21:43:05.503Z,28.30
2018-05-29T21:45:36.815Z,39.00
2018-05-29T21:48:09.246Z,29.70
2018-05-29T21:50:40.496Z,40.13
2018-05-29T21:53:20.165Z,36.33
2018-05-29T21:56:14.939Z,22.27
2018-05-29T21:58:54.370Z,42.57
2018-05-29T22:01:24.439Z,70.23
2018-05-29T22:03:58.624Z,21.47
2018-05-29T22:06:29.584Z,29.33
2018-05-29T22:09:01.669Z,36.70
2018-05-29T22:11:35.197Z,37.20
2018-05-29T22:14:05.774Z,50.83
2018-05-29T22:16:35.488Z,21.13
2018-05-29T22:19:07.865Z,24.03
2018-05-29T22:21:37.631Z,28.07
2018-05-29T22:24:11.249Z,28.03
2018-05-29T22:26:43.382Z,32.07
2018-05-29T22:29:14.515Z,68.30
2018-05-29T22:31:46.822Z,26.37
2018-05-29T22:34:29.474Z,23.80
2018-05-29T22:37:07.331Z,29.23
2018-05-29T22:39:42.420Z,33.97
2018-05-29T22:42:13.286Z,25.63
2018-05-29T22:44:43.207Z,29.37
2018-05-29T22:47:17.790Z,31.77
2018-05-29T22:49:49.348Z,37.60
2018-05-29T22:52:21.727Z,56.97
2018-05-29T22:54:56.057Z,86.07
2018-05-29T22:57:26.122Z,31.33
2018-05-29T23:00:09.241Z,22.17
2018-05-29T23:02:40.384Z,31.50
2018-05-29T23:08:01.551Z,33.43
2018-05-29T23:10:32.076Z,31.67
2018-05-29T23:13:01.761Z,32.67
2018-05-29T23:15:46.807Z,28.87
2018-05-29T23:18:17.511Z,24.63
2018-05-29T23:20:53.780Z,23.43
2018-05-29T23:23:23.916Z,23.30
2018-05-29T23:25:56.190Z,30.80
2018-05-29T23:28:30.338Z,23.60
2018-05-29T23:31:02.476Z,25.60
2018-05-29T23:33:35.182Z,25.43
2018-05-29T23:36:06.092Z,45.30
2018-05-29T23:38:39.612Z,26.83
2018-05-29T23:41:10.582Z,28.33
2018-05-29T23:43:41.076Z,22.40
2018-05-29T23:46:11.351Z,43.03
2018-05-29T23:48:42.305Z,38.03
2018-05-29T23:51:13.463Z,38.00
2018-05-29T23:53:44.818Z,32.73
2018-05-29T23:56:15.223Z,38.57
2018-05-29T23:58:46.052Z,23.10
